sensor_id;sensor_type;location;lat;lon;timestamp;temperature;humidity
6018;DHT22;3037;51.068;13.780;2023-02-28T00:00:05;1.70;1.00
6018;DHT22;3037;51.068;13.780;2023-02-28T00:02:39;1.50;1.00
6018;DHT22;3037;51.068;13.780;2023-02-28T00:05:05;1.60;1.00
6018;DHT22;3037;51.068;13.780;2023-02-28T00:07:31;1.40;1.00
6018;DHT22;3037;51.068;13.780;2023-02-28T00:09:57;1.30;1.00
6018;DHT22;3037;51.068;13.780;2023-02-28T00:12:23;1.40;1.00
6018;DHT22;3037;51.068;13.780;2023-02-28T00:14:49;1.50;1.00
6018;DHT22;3037;51.068;13.780;2023-02-28T00:17:14;1.50;1.00
6018;DHT22;3037;51.068;13.780;2023-02-28T00:19:41;1.50;1.00
6018;DHT22;3037;51.068;13.780;2023-02-28T00:22:06;1.40;1.00
6018;DHT22;3037;51.068;13.780;2023-02-28T00:24:32;1.40;1.00
6018;DHT22;3037;51.068;13.780;2023-02-28T00:26:57;1.40;1.00
6018;DHT22;3037;51.068;13.780;2023-02-28T00:29:23;1.50;1.00
6018;DHT22;3037;51.068;13.780;2023-02-28T00:31:48;1.30;1.00
6018;DHT22;3037;51.068;13.780;2023-02-28T00:34:14;1.30;1.00
6018;DHT22;3037;51.068;13.780;2023-02-28T00:36:39;1.30;1.00
6018;DHT22;3037;51.068;13.780;2023-02-28T00:39:08;1.50;1.00
6018;DHT22;3037;51.068;13.780;2023-02-28T00:41:34;1.30;1.00
6018;DHT22;3037;51.068;13.780;2023-02-28T00:43:59;1.20;1.00
6018;DHT22;3037;51.068;13.780;2023-02-28T00:46:25;1.10;1.00
6018;DHT22;3037;51.068;13.780;2023-02-28T00:48:50;1.20;1.00
6018;DHT22;3037;51.068;13.780;2023-02-28T00:51:16;1.20;1.00
6018;DHT22;3037;51.068;13.780;2023-02-28T00:53:41;0.80;1.00
6018;DHT22;3037;51.068;13.780;2023-02-28T00:56:07;0.90;1.00
6018;DHT22;3037;51.068;13.780;2023-02-28T00:58:32;0.90;1.00
6018;DHT22;3037;51.068;13.780;2023-02-28T01:00:58;0.90;1.00
6018;DHT22;3037;51.068;13.780;2023-02-28T01:03:23;0.90;1.00
6018;DHT22;3037;51.068;13.780;2023-02-28T01:05:49;0.90;1.00
6018;DHT22;3037;51.068;13.780;2023-02-28T01:08:15;0.90;1.00
6018;DHT22;3037;51.068;13.780;2023-02-28T01:10:41;0.80;1.00
6018;DHT22;3037;51.068;13.780;2023-02-28T01:13:06;0.90;1.00
6018;DHT22;3037;51.068;13.780;2023-02-28T01:15:32;0.80;1.00
6018;DHT22;3037;51.068;13.780;2023-02-28T01:17:58;0.80;1.00
6018;DHT22;3037;51.068;13.780;2023-02-28T01:20:24;0.80;1.00
6018;DHT22;3037;51.068;13.780;2023-02-28T01:22:49;1.00;1.00
6018;DHT22;3037;51.068;13.780;2023-02-28T01:25:15;0.90;1.00
6018;DHT22;3037;51.068;13.780;2023-02-28T01:27:40;1.00;1.00
6018;DHT22;3037;51.068;13.780;2023-02-28T01:30:09;0.90;1.00
6018;DHT22;3037;51.068;13.780;2023-02-28T01:32:35;0.90;1.00
6018;DHT22;3037;51.068;13.780;2023-02-28T01:35:01;0.90;1.00
6018;DHT22;3037;51.068;13.780;2023-02-28T01:37:26;0.70;1.00
6018;DHT22;3037;51.068;13.780;2023-02-28T01:39:52;0.60;1.00
6018;DHT22;3037;51.068;13.780;2023-02-28T01:42:18;0.60;1.00
6018;DHT22;3037;51.068;13.780;2023-02-28T01:45:02;0.60;1.00
6018;DHT22;3037;51.068;13.780;2023-02-28T01:47:37;0.50;1.00
6018;DHT22;3037;51.068;13.780;2023-02-28T01:50:07;0.60;1.00
6018;DHT22;3037;51.068;13.780;2023-02-28T01:52:34;0.50;1.00
6018;DHT22;3037;51.068;13.780;2023-02-28T01:55:01;0.50;1.00
6018;DHT22;3037;51.068;13.780;2023-02-28T01:57:32;0.60;1.00
6018;DHT22;3037;51.068;13.780;2023-02-28T02:02:35;0.50;1.00
6018;DHT22;3037;51.068;13.780;2023-02-28T02:05:06;0.60;1.00
6018;DHT22;3037;51.068;13.780;2023-02-28T02:07:35;0.40;1.00
6018;DHT22;3037;51.068;13.780;2023-02-28T02:10:14;0.30;1.00
6018;DHT22;3037;51.068;13.780;2023-02-28T02:15:34;0.30;1.00
6018;DHT22;3037;51.068;13.780;2023-02-28T02:18:14;0.30;16.40
6018;DHT22;3037;51.068;13.780;2023-02-28T02:23:53;0.50;1.00
6018;DHT22;3037;51.068;13.780;2023-02-28T02:32:28;0.40;1.00
6018;DHT22;3037;51.068;13.780;2023-02-28T02:43:32;0.30;1.00
6018;DHT22;3037;51.068;13.780;2023-02-28T02:46:10;0.10;11.20
6018;DHT22;3037;51.068;13.780;2023-02-28T02:48:39;0.30;1.00
6018;DHT22;3037;51.068;13.780;2023-02-28T02:51:11;0.30;1.00
6018;DHT22;3037;51.068;13.780;2023-02-28T02:53:51;0.40;1.00
6018;DHT22;3037;51.068;13.780;2023-02-28T02:56:20;0.30;1.00
6018;DHT22;3037;51.068;13.780;2023-02-28T02:58:49;0.40;1.00
6018;DHT22;3037;51.068;13.780;2023-02-28T03:01:19;0.20;1.00
6018;DHT22;3037;51.068;13.780;2023-02-28T03:04:05;0.10;1.00
6018;DHT22;3037;51.068;13.780;2023-02-28T03:06:32;0.10;1.00
6018;DHT22;3037;51.068;13.780;2023-02-28T03:08:59;0.10;1.00
6018;DHT22;3037;51.068;13.780;2023-02-28T03:11:25;0.10;1.00
6018;DHT22;3037;51.068;13.780;2023-02-28T03:20:32;0.00;98.60
6018;DHT22;3037;51.068;13.780;2023-02-28T03:23:10;-0.10;95.60
6018;DHT22;3037;51.068;13.780;2023-02-28T03:25:50;-0.30;99.90
6018;DHT22;3037;51.068;13.780;2023-02-28T03:31:30;-0.40;99.90
6018;DHT22;3037;51.068;13.780;2023-02-28T03:34:12;-0.40;99.90
6018;DHT22;3037;51.068;13.780;2023-02-28T03:36:43;-0.50;99.90
6018;DHT22;3037;51.068;13.780;2023-02-28T03:39:23;-0.60;99.90
6018;DHT22;3037;51.068;13.780;2023-02-28T03:41:59;-0.70;99.90
6018;DHT22;3037;51.068;13.780;2023-02-28T03:44:48;-0.70;99.90
6018;DHT22;3037;51.068;13.780;2023-02-28T03:47:21;-0.70;1.00
6018;DHT22;3037;51.068;13.780;2023-02-28T03:50:11;-0.80;1.00
6018;DHT22;3037;51.068;13.780;2023-02-28T03:52:47;-0.80;1.00
6018;DHT22;3037;51.068;13.780;2023-02-28T03:55:15;-0.80;1.00
6018;DHT22;3037;51.068;13.780;2023-02-28T03:57:58;-0.90;1.00
6018;DHT22;3037;51.068;13.780;2023-02-28T04:00:34;-0.80;1.00
6018;DHT22;3037;51.068;13.780;2023-02-28T04:03:01;-0.80;1.00
6018;DHT22;3037;51.068;13.780;2023-02-28T04:05:27;-0.90;1.00
6018;DHT22;3037;51.068;13.780;2023-02-28T04:07:52;-1.00;1.00
6018;DHT22;3037;51.068;13.780;2023-02-28T04:10:19;-0.90;1.00
6018;DHT22;3037;51.068;13.780;2023-02-28T04:12:45;-1.00;1.00
6018;DHT22;3037;51.068;13.780;2023-02-28T04:15:10;-1.10;1.00
6018;DHT22;3037;51.068;13.780;2023-02-28T04:17:36;-1.10;1.00
6018;DHT22;3037;51.068;13.780;2023-02-28T04:20:04;-1.00;99.90
6018;DHT22;3037;51.068;13.780;2023-02-28T04:22:35;-1.10;99.90
6018;DHT22;3037;51.068;13.780;2023-02-28T04:25:00;-1.10;1.00
6018;DHT22;3037;51.068;13.780;2023-02-28T04:27:26;-1.10;99.90
6018;DHT22;3037;51.068;13.780;2023-02-28T04:29:51;-1.00;56.30
6018;DHT22;3037;51.068;13.780;2023-02-28T04:32:17;-1.10;1.00
6018;DHT22;3037;51.068;13.780;2023-02-28T04:34:42;-1.10;64.20
6018;DHT22;3037;51.068;13.780;2023-02-28T04:37:08;-1.10;1.00
6018;DHT22;3037;51.068;13.780;2023-02-28T04:39:36;-1.20;17.00
6018;DHT22;3037;51.068;13.780;2023-02-28T04:42:01;-1.20;23.70
6018;DHT22;3037;51.068;13.780;2023-02-28T04:44:27;-1.20;99.90
6018;DHT22;3037;51.068;13.780;2023-02-28T04:46:52;-1.30;1.00
6018;DHT22;3037;51.068;13.780;2023-02-28T04:49:18;-1.30;99.90
6018;DHT22;3037;51.068;13.780;2023-02-28T04:51:43;-1.40;5.20
6018;DHT22;3037;51.068;13.780;2023-02-28T04:54:09;-1.50;1.00
6018;DHT22;3037;51.068;13.780;2023-02-28T04:56:35;-1.40;99.90
6018;DHT22;3037;51.068;13.780;2023-02-28T04:59:00;-1.50;99.90
6018;DHT22;3037;51.068;13.780;2023-02-28T05:01:31;-1.40;99.90
6018;DHT22;3037;51.068;13.780;2023-02-28T05:03:59;-1.40;99.90
6018;DHT22;3037;51.068;13.780;2023-02-28T05:06:26;-1.50;99.90
6018;DHT22;3037;51.068;13.780;2023-02-28T05:08:52;-1.70;99.90
6018;DHT22;3037;51.068;13.780;2023-02-28T05:11:29;-1.60;99.90
6018;DHT22;3037;51.068;13.780;2023-02-28T05:13:59;-1.70;1.00
6018;DHT22;3037;51.068;13.780;2023-02-28T05:16:25;-1.60;1.00
6018;DHT22;3037;51.068;13.780;2023-02-28T05:18:50;-1.70;99.90
6018;DHT22;3037;51.068;13.780;2023-02-28T05:21:31;-1.80;99.90
6018;DHT22;3037;51.068;13.780;2023-02-28T05:23:58;-1.70;1.00
6018;DHT22;3037;51.068;13.780;2023-02-28T05:26:25;-1.60;99.90
6018;DHT22;3037;51.068;13.780;2023-02-28T05:28:51;-1.70;99.90
6018;DHT22;3037;51.068;13.780;2023-02-28T05:31:16;-1.70;1.00
6018;DHT22;3037;51.068;13.780;2023-02-28T05:33:42;-1.70;1.00
6018;DHT22;3037;51.068;13.780;2023-02-28T05:36:07;-1.70;1.00
6018;DHT22;3037;51.068;13.780;2023-02-28T05:38:33;-1.50;1.00
6018;DHT22;3037;51.068;13.780;2023-02-28T05:40:59;-1.60;1.00
6018;DHT22;3037;51.068;13.780;2023-02-28T05:43:24;-1.70;99.90
6018;DHT22;3037;51.068;13.780;2023-02-28T05:45:49;-1.70;99.90
6018;DHT22;3037;51.068;13.780;2023-02-28T05:48:15;-1.70;1.00
6018;DHT22;3037;51.068;13.780;2023-02-28T05:50:42;-1.40;1.00
6018;DHT22;3037;51.068;13.780;2023-02-28T05:53:07;-1.60;99.90
6018;DHT22;3037;51.068;13.780;2023-02-28T05:55:33;-1.70;1.00
6018;DHT22;3037;51.068;13.780;2023-02-28T05:58:01;-1.70;1.00
6018;DHT22;3037;51.068;13.780;2023-02-28T06:00:26;-1.70;1.00
6018;DHT22;3037;51.068;13.780;2023-02-28T06:02:53;-1.70;1.00
6018;DHT22;3037;51.068;13.780;2023-02-28T06:05:21;-1.70;1.00
6018;DHT22;3037;51.068;13.780;2023-02-28T06:07:47;-1.80;1.00
6018;DHT22;3037;51.068;13.780;2023-02-28T06:10:13;-1.70;1.00
6018;DHT22;3037;51.068;13.780;2023-02-28T06:12:39;-1.80;1.00
6018;DHT22;3037;51.068;13.780;2023-02-28T06:15:07;-1.60;1.00
6018;DHT22;3037;51.068;13.780;2023-02-28T06:17:33;-1.60;99.90
6018;DHT22;3037;51.068;13.780;2023-02-28T06:19:58;-1.60;56.10
6018;DHT22;3037;51.068;13.780;2023-02-28T06:22:24;-1.50;1.00
6018;DHT22;3037;51.068;13.780;2023-02-28T06:24:49;-1.60;1.00
6018;DHT22;3037;51.068;13.780;2023-02-28T06:27:15;-1.60;1.00
6018;DHT22;3037;51.068;13.780;2023-02-28T06:29:40;-1.40;1.00
6018;DHT22;3037;51.068;13.780;2023-02-28T06:32:06;-1.20;99.90
6018;DHT22;3037;51.068;13.780;2023-02-28T06:34:32;-1.00;99.90
6018;DHT22;3037;51.068;13.780;2023-02-28T06:36:59;-1.00;99.90
6018;DHT22;3037;51.068;13.780;2023-02-28T06:39:31;-1.20;99.90
6018;DHT22;3037;51.068;13.780;2023-02-28T06:41:56;-1.20;99.90
6018;DHT22;3037;51.068;13.780;2023-02-28T06:44:23;-1.20;99.90
6018;DHT22;3037;51.068;13.780;2023-02-28T06:46:49;-1.20;99.90
6018;DHT22;3037;51.068;13.780;2023-02-28T06:49:15;-1.20;99.90
6018;DHT22;3037;51.068;13.780;2023-02-28T06:51:43;-1.10;99.90
6018;DHT22;3037;51.068;13.780;2023-02-28T06:54:13;-1.00;99.90
6018;DHT22;3037;51.068;13.780;2023-02-28T06:56:38;-0.90;99.90
6018;DHT22;3037;51.068;13.780;2023-02-28T06:59:04;-0.80;99.90
6018;DHT22;3037;51.068;13.780;2023-02-28T07:01:30;-0.80;99.90
6018;DHT22;3037;51.068;13.780;2023-02-28T07:03:57;-0.50;99.90
6018;DHT22;3037;51.068;13.780;2023-02-28T07:06:23;-0.40;12.30
6018;DHT22;3037;51.068;13.780;2023-02-28T07:08:49;-0.30;1.00
6018;DHT22;3037;51.068;13.780;2023-02-28T07:11:15;0.00;1.00
6018;DHT22;3037;51.068;13.780;2023-02-28T07:13:40;1.70;1.00
6018;DHT22;3037;51.068;13.780;2023-02-28T07:16:09;5.60;1.00
6018;DHT22;3037;51.068;13.780;2023-02-28T07:18:36;7.20;1.00
6018;DHT22;3037;51.068;13.780;2023-02-28T07:21:03;8.70;1.00
6018;DHT22;3037;51.068;13.780;2023-02-28T07:23:29;9.50;1.00
6018;DHT22;3037;51.068;13.780;2023-02-28T07:25:55;9.30;1.00
6018;DHT22;3037;51.068;13.780;2023-02-28T07:28:20;9.70;1.00
6018;DHT22;3037;51.068;13.780;2023-02-28T07:30:46;8.70;1.00
6018;DHT22;3037;51.068;13.780;2023-02-28T07:33:12;8.70;1.00
6018;DHT22;3037;51.068;13.780;2023-02-28T07:35:37;11.20;1.00
6018;DHT22;3037;51.068;13.780;2023-02-28T07:38:03;13.30;1.00
6018;DHT22;3037;51.068;13.780;2023-02-28T07:40:29;11.80;1.00
6018;DHT22;3037;51.068;13.780;2023-02-28T07:42:54;10.10;1.00
6018;DHT22;3037;51.068;13.780;2023-02-28T07:45:20;12.60;1.00
6018;DHT22;3037;51.068;13.780;2023-02-28T07:47:46;13.30;1.00
6018;DHT22;3037;51.068;13.780;2023-02-28T07:50:15;12.80;1.00
6018;DHT22;3037;51.068;13.780;2023-02-28T07:52:41;12.90;1.00
6018;DHT22;3037;51.068;13.780;2023-02-28T07:55:08;14.10;1.00
6018;DHT22;3037;51.068;13.780;2023-02-28T07:57:35;14.10;1.00
6018;DHT22;3037;51.068;13.780;2023-02-28T08:00:01;13.00;1.00
6018;DHT22;3037;51.068;13.780;2023-02-28T08:02:26;8.90;1.00
6018;DHT22;3037;51.068;13.780;2023-02-28T08:04:52;9.30;1.00
6018;DHT22;3037;51.068;13.780;2023-02-28T08:07:18;12.30;1.00
6018;DHT22;3037;51.068;13.780;2023-02-28T08:09:44;13.70;1.00
6018;DHT22;3037;51.068;13.780;2023-02-28T08:12:10;13.70;1.00
6018;DHT22;3037;51.068;13.780;2023-02-28T08:14:37;11.40;1.00
6018;DHT22;3037;51.068;13.780;2023-02-28T08:17:03;12.00;1.00
6018;DHT22;3037;51.068;13.780;2023-02-28T08:19:28;14.70;1.00
6018;DHT22;3037;51.068;13.780;2023-02-28T08:21:54;10.50;1.00
6018;DHT22;3037;51.068;13.780;2023-02-28T08:24:20;10.40;1.00
6018;DHT22;3037;51.068;13.780;2023-02-28T08:26:45;8.40;1.00
6018;DHT22;3037;51.068;13.780;2023-02-28T08:29:11;6.90;1.00
6018;DHT22;3037;51.068;13.780;2023-02-28T08:31:37;6.60;1.00
6018;DHT22;3037;51.068;13.780;2023-02-28T08:34:13;5.50;1.00
6018;DHT22;3037;51.068;13.780;2023-02-28T08:36:40;5.80;1.00
6018;DHT22;3037;51.068;13.780;2023-02-28T08:39:06;5.80;1.00
6018;DHT22;3037;51.068;13.780;2023-02-28T08:41:33;6.00;1.00
6018;DHT22;3037;51.068;13.780;2023-02-28T08:43:58;5.90;1.00
6018;DHT22;3037;51.068;13.780;2023-02-28T08:46:24;5.10;1.00
6018;DHT22;3037;51.068;13.780;2023-02-28T08:48:54;5.00;1.00
6018;DHT22;3037;51.068;13.780;2023-02-28T08:51:21;5.20;1.00
6018;DHT22;3037;51.068;13.780;2023-02-28T08:53:52;5.70;1.00
6018;DHT22;3037;51.068;13.780;2023-02-28T08:56:18;6.00;1.00
6018;DHT22;3037;51.068;13.780;2023-02-28T08:58:45;6.20;1.00
6018;DHT22;3037;51.068;13.780;2023-02-28T09:01:13;6.50;1.00
6018;DHT22;3037;51.068;13.780;2023-02-28T09:03:39;6.50;1.00
6018;DHT22;3037;51.068;13.780;2023-02-28T09:06:06;6.90;1.00
6018;DHT22;3037;51.068;13.780;2023-02-28T09:08:31;7.60;1.00
6018;DHT22;3037;51.068;13.780;2023-02-28T09:10:58;7.20;1.00
6018;DHT22;3037;51.068;13.780;2023-02-28T09:13:25;7.30;1.00
6018;DHT22;3037;51.068;13.780;2023-02-28T09:15:51;7.60;1.00
6018;DHT22;3037;51.068;13.780;2023-02-28T09:18:17;7.70;1.00
6018;DHT22;3037;51.068;13.780;2023-02-28T09:20:43;7.30;1.00
6018;DHT22;3037;51.068;13.780;2023-02-28T09:23:10;7.50;1.00
6018;DHT22;3037;51.068;13.780;2023-02-28T09:25:37;9.00;1.00
6018;DHT22;3037;51.068;13.780;2023-02-28T09:28:04;10.10;1.00
6018;DHT22;3037;51.068;13.780;2023-02-28T09:30:30;10.80;1.00
6018;DHT22;3037;51.068;13.780;2023-02-28T09:32:55;11.70;1.00
6018;DHT22;3037;51.068;13.780;2023-02-28T09:35:22;12.10;1.00
6018;DHT22;3037;51.068;13.780;2023-02-28T09:37:49;11.40;1.00
6018;DHT22;3037;51.068;13.780;2023-02-28T09:40:17;12.70;1.00
6018;DHT22;3037;51.068;13.780;2023-02-28T09:42:45;13.40;1.00
6018;DHT22;3037;51.068;13.780;2023-02-28T09:45:33;14.90;1.00
6018;DHT22;3037;51.068;13.780;2023-02-28T09:48:04;15.70;1.00
6018;DHT22;3037;51.068;13.780;2023-02-28T09:50:55;17.30;1.00
6018;DHT22;3037;51.068;13.780;2023-02-28T09:53:22;15.70;1.00
6018;DHT22;3037;51.068;13.780;2023-02-28T09:55:55;13.50;1.00
6018;DHT22;3037;51.068;13.780;2023-02-28T09:58:28;10.70;1.00
6018;DHT22;3037;51.068;13.780;2023-02-28T10:01:10;13.70;1.00
6018;DHT22;3037;51.068;13.780;2023-02-28T10:06:47;11.50;1.00
6018;DHT22;3037;51.068;13.780;2023-02-28T10:09:19;10.40;1.00
6018;DHT22;3037;51.068;13.780;2023-02-28T10:11:49;9.50;1.00
6018;DHT22;3037;51.068;13.780;2023-02-28T10:14:22;10.80;1.00
6018;DHT22;3037;51.068;13.780;2023-02-28T10:16:55;10.00;1.00
6018;DHT22;3037;51.068;13.780;2023-02-28T10:22:40;13.80;1.00
6018;DHT22;3037;51.068;13.780;2023-02-28T10:25:23;14.50;1.00
6018;DHT22;3037;51.068;13.780;2023-02-28T10:27:53;15.70;1.00
6018;DHT22;3037;51.068;13.780;2023-02-28T10:30:19;15.30;1.00
6018;DHT22;3037;51.068;13.780;2023-02-28T10:32:50;10.10;1.00
6018;DHT22;3037;51.068;13.780;2023-02-28T10:35:17;10.00;1.00
6018;DHT22;3037;51.068;13.780;2023-02-28T10:37:51;15.30;1.00
6018;DHT22;3037;51.068;13.780;2023-02-28T10:43:01;16.70;1.00
6018;DHT22;3037;51.068;13.780;2023-02-28T10:45:32;15.00;1.00
6018;DHT22;3037;51.068;13.780;2023-02-28T10:48:10;10.30;1.00
6018;DHT22;3037;51.068;13.780;2023-02-28T10:50:52;12.10;1.00
6018;DHT22;3037;51.068;13.780;2023-02-28T10:56:20;13.80;1.00
6018;DHT22;3037;51.068;13.780;2023-02-28T10:59:11;14.50;1.00
6018;DHT22;3037;51.068;13.780;2023-02-28T11:01:47;12.60;1.00
6018;DHT22;3037;51.068;13.780;2023-02-28T11:07:01;12.40;1.00
6018;DHT22;3037;51.068;13.780;2023-02-28T11:09:32;10.50;1.00
6018;DHT22;3037;51.068;13.780;2023-02-28T11:12:01;10.30;1.00
6018;DHT22;3037;51.068;13.780;2023-02-28T11:14:28;10.00;1.00
6018;DHT22;3037;51.068;13.780;2023-02-28T11:16:59;8.80;1.00
6018;DHT22;3037;51.068;13.780;2023-02-28T11:19:33;8.80;1.00
6018;DHT22;3037;51.068;13.780;2023-02-28T11:22:02;9.30;1.00
6018;DHT22;3037;51.068;13.780;2023-02-28T11:24:33;8.70;1.00
6018;DHT22;3037;51.068;13.780;2023-02-28T11:26:59;9.00;1.00
6018;DHT22;3037;51.068;13.780;2023-02-28T11:29:28;8.40;1.00
6018;DHT22;3037;51.068;13.780;2023-02-28T11:32:19;8.20;1.00
6018;DHT22;3037;51.068;13.780;2023-02-28T11:34:47;7.70;1.00
6018;DHT22;3037;51.068;13.780;2023-02-28T11:37:26;8.60;1.00
6018;DHT22;3037;51.068;13.780;2023-02-28T11:39:52;9.60;1.00
6018;DHT22;3037;51.068;13.780;2023-02-28T11:53:02;9.00;1.00
6018;DHT22;3037;51.068;13.780;2023-02-28T11:55:37;9.00;1.00
6018;DHT22;3037;51.068;13.780;2023-02-28T12:01:14;9.60;1.00
6018;DHT22;3037;51.068;13.780;2023-02-28T12:04:11;9.10;1.00
6018;DHT22;3037;51.068;13.780;2023-02-28T12:06:53;9.50;1.00
6018;DHT22;3037;51.068;13.780;2023-02-28T12:12:23;10.20;1.00
6018;DHT22;3037;51.068;13.780;2023-02-28T12:17:48;9.50;1.00
6018;DHT22;3037;51.068;13.780;2023-02-28T12:20:30;8.90;1.00
6018;DHT22;3037;51.068;13.780;2023-02-28T12:23:19;8.80;1.00
6018;DHT22;3037;51.068;13.780;2023-02-28T12:26:01;9.10;1.00
6018;DHT22;3037;51.068;13.780;2023-02-28T12:28:34;9.10;1.00
6018;DHT22;3037;51.068;13.780;2023-02-28T12:31:06;10.60;1.00
6018;DHT22;3037;51.068;13.780;2023-02-28T12:33:38;10.70;1.00
6018;DHT22;3037;51.068;13.780;2023-02-28T12:36:10;9.50;1.00
6018;DHT22;3037;51.068;13.780;2023-02-28T12:38:47;8.70;1.00
6018;DHT22;3037;51.068;13.780;2023-02-28T12:41:26;8.40;1.00
6018;DHT22;3037;51.068;13.780;2023-02-28T12:44:02;7.60;1.00
6018;DHT22;3037;51.068;13.780;2023-02-28T12:46:34;7.70;1.00
6018;DHT22;3037;51.068;13.780;2023-02-28T12:49:21;8.30;1.00
6018;DHT22;3037;51.068;13.780;2023-02-28T12:51:50;8.00;1.00
6018;DHT22;3037;51.068;13.780;2023-02-28T12:54:25;7.50;1.00
6018;DHT22;3037;51.068;13.780;2023-02-28T12:59:49;6.20;1.00
6018;DHT22;3037;51.068;13.780;2023-02-28T13:02:29;6.90;1.00
6018;DHT22;3037;51.068;13.780;2023-02-28T13:10:41;6.10;1.00
6018;DHT22;3037;51.068;13.780;2023-02-28T13:13:14;6.60;1.00
6018;DHT22;3037;51.068;13.780;2023-02-28T13:15:41;6.30;1.00
6018;DHT22;3037;51.068;13.780;2023-02-28T13:18:45;6.00;1.00
6018;DHT22;3037;51.068;13.780;2023-02-28T13:21:28;5.80;1.00
6018;DHT22;3037;51.068;13.780;2023-02-28T13:24:03;6.00;1.00
6018;DHT22;3037;51.068;13.780;2023-02-28T13:39:50;6.10;1.00
6018;DHT22;3037;51.068;13.780;2023-02-28T13:47:42;5.30;1.00
6018;DHT22;3037;51.068;13.780;2023-02-28T13:50:27;6.00;1.00
6018;DHT22;3037;51.068;13.780;2023-02-28T13:58:40;6.30;1.00
6018;DHT22;3037;51.068;13.780;2023-02-28T14:06:57;6.10;1.00
6018;DHT22;3037;51.068;13.780;2023-02-28T14:09:38;6.20;1.00
6018;DHT22;3037;51.068;13.780;2023-02-28T14:18:01;6.50;1.00
6018;DHT22;3037;51.068;13.780;2023-02-28T14:20:30;6.50;1.00
6018;DHT22;3037;51.068;13.780;2023-02-28T14:28:43;6.30;1.00
6018;DHT22;3037;51.068;13.780;2023-02-28T14:31:15;6.70;1.00
6018;DHT22;3037;51.068;13.780;2023-02-28T14:34:05;6.20;1.00
6018;DHT22;3037;51.068;13.780;2023-02-28T14:36:40;6.00;1.00
6018;DHT22;3037;51.068;13.780;2023-02-28T14:41:41;5.80;1.00
6018;DHT22;3037;51.068;13.780;2023-02-28T14:44:24;5.60;1.00
6018;DHT22;3037;51.068;13.780;2023-02-28T14:47:01;6.20;1.00
6018;DHT22;3037;51.068;13.780;2023-02-28T14:49:42;6.00;1.00
6018;DHT22;3037;51.068;13.780;2023-02-28T14:52:19;5.30;1.00
6018;DHT22;3037;51.068;13.780;2023-02-28T14:54:46;5.00;1.00
6018;DHT22;3037;51.068;13.780;2023-02-28T14:57:38;5.50;1.00
6018;DHT22;3037;51.068;13.780;2023-02-28T15:00:15;5.60;1.00
6018;DHT22;3037;51.068;13.780;2023-02-28T15:02:42;5.60;1.00
6018;DHT22;3037;51.068;13.780;2023-02-28T15:07:43;5.50;1.00
6018;DHT22;3037;51.068;13.780;2023-02-28T15:10:22;5.30;1.00
6018;DHT22;3037;51.068;13.780;2023-02-28T15:12:57;5.50;1.00
6018;DHT22;3037;51.068;13.780;2023-02-28T15:15:50;5.30;1.00
6018;DHT22;3037;51.068;13.780;2023-02-28T15:18:26;5.40;1.00
6018;DHT22;3037;51.068;13.780;2023-02-28T15:20:52;4.80;1.00
6018;DHT22;3037;51.068;13.780;2023-02-28T15:23:20;4.80;1.00
6018;DHT22;3037;51.068;13.780;2023-02-28T15:25:46;5.10;1.00
6018;DHT22;3037;51.068;13.780;2023-02-28T15:28:16;5.20;1.00
6018;DHT22;3037;51.068;13.780;2023-02-28T15:30:52;4.60;1.00
6018;DHT22;3037;51.068;13.780;2023-02-28T15:33:20;4.40;1.00
6018;DHT22;3037;51.068;13.780;2023-02-28T15:35:46;4.30;1.00
6018;DHT22;3037;51.068;13.780;2023-02-28T15:38:27;4.20;1.00
6018;DHT22;3037;51.068;13.780;2023-02-28T15:40:53;4.10;1.00
6018;DHT22;3037;51.068;13.780;2023-02-28T15:43:31;4.10;1.00
6018;DHT22;3037;51.068;13.780;2023-02-28T15:46:02;4.40;1.00
6018;DHT22;3037;51.068;13.780;2023-02-28T15:48:53;4.20;1.00
6018;DHT22;3037;51.068;13.780;2023-02-28T15:51:27;4.10;1.00
6018;DHT22;3037;51.068;13.780;2023-02-28T15:53:57;4.10;1.00
6018;DHT22;3037;51.068;13.780;2023-02-28T15:56:26;3.90;1.00
6018;DHT22;3037;51.068;13.780;2023-02-28T15:59:00;3.70;1.00
6018;DHT22;3037;51.068;13.780;2023-02-28T16:01:34;3.70;1.00
6018;DHT22;3037;51.068;13.780;2023-02-28T16:04:03;4.00;1.00
6018;DHT22;3037;51.068;13.780;2023-02-28T16:06:46;3.80;1.00
6018;DHT22;3037;51.068;13.780;2023-02-28T16:09:14;3.60;1.00
6018;DHT22;3037;51.068;13.780;2023-02-28T16:11:49;3.60;1.00
6018;DHT22;3037;51.068;13.780;2023-02-28T16:14:23;3.70;1.00
6018;DHT22;3037;51.068;13.780;2023-02-28T16:16:52;3.80;1.00
6018;DHT22;3037;51.068;13.780;2023-02-28T16:19:19;3.50;1.00
6018;DHT22;3037;51.068;13.780;2023-02-28T16:21:45;3.40;1.00
6018;DHT22;3037;51.068;13.780;2023-02-28T16:24:11;3.80;1.00
6018;DHT22;3037;51.068;13.780;2023-02-28T16:26:37;4.20;1.00
6018;DHT22;3037;51.068;13.780;2023-02-28T16:29:05;3.60;1.00
6018;DHT22;3037;51.068;13.780;2023-02-28T16:31:34;3.90;1.00
6018;DHT22;3037;51.068;13.780;2023-02-28T16:34:00;4.00;1.00
6018;DHT22;3037;51.068;13.780;2023-02-28T16:36:26;3.80;1.00
6018;DHT22;3037;51.068;13.780;2023-02-28T16:38:53;3.90;1.00
6018;DHT22;3037;51.068;13.780;2023-02-28T16:41:22;3.60;1.00
6018;DHT22;3037;51.068;13.780;2023-02-28T16:43:50;3.40;1.00
6018;DHT22;3037;51.068;13.780;2023-02-28T16:46:17;3.40;1.00
6018;DHT22;3037;51.068;13.780;2023-02-28T16:48:44;3.20;1.00
6018;DHT22;3037;51.068;13.780;2023-02-28T16:51:15;3.60;1.00
6018;DHT22;3037;51.068;13.780;2023-02-28T16:53:41;3.90;1.00
6018;DHT22;3037;51.068;13.780;2023-02-28T16:56:17;3.40;1.00
6018;DHT22;3037;51.068;13.780;2023-02-28T16:58:43;3.00;1.00
6018;DHT22;3037;51.068;13.780;2023-02-28T17:01:09;2.70;1.00
6018;DHT22;3037;51.068;13.780;2023-02-28T17:03:34;2.50;1.00
6018;DHT22;3037;51.068;13.780;2023-02-28T17:06:02;2.30;1.00
6018;DHT22;3037;51.068;13.780;2023-02-28T17:08:28;2.20;1.00
6018;DHT22;3037;51.068;13.780;2023-02-28T17:10:55;2.10;1.00
6018;DHT22;3037;51.068;13.780;2023-02-28T17:13:20;2.00;1.00
6018;DHT22;3037;51.068;13.780;2023-02-28T17:15:46;2.00;1.00
6018;DHT22;3037;51.068;13.780;2023-02-28T17:18:15;1.70;1.00
6018;DHT22;3037;51.068;13.780;2023-02-28T17:20:41;1.60;1.00
6018;DHT22;3037;51.068;13.780;2023-02-28T17:23:08;1.60;1.00
6018;DHT22;3037;51.068;13.780;2023-02-28T17:25:33;1.50;1.00
6018;DHT22;3037;51.068;13.780;2023-02-28T17:27:59;1.50;1.00
6018;DHT22;3037;51.068;13.780;2023-02-28T17:30:26;1.30;1.00
6018;DHT22;3037;51.068;13.780;2023-02-28T17:32:56;1.30;1.00
6018;DHT22;3037;51.068;13.780;2023-02-28T17:35:22;1.40;1.00
6018;DHT22;3037;51.068;13.780;2023-02-28T17:37:48;2.40;99.90
6018;DHT22;3037;51.068;13.780;2023-02-28T17:40:20;3.10;1.00
6018;DHT22;3037;51.068;13.780;2023-02-28T17:42:46;2.80;1.00
6018;DHT22;3037;51.068;13.780;2023-02-28T17:45:13;3.00;1.00
6018;DHT22;3037;51.068;13.780;2023-02-28T17:47:39;2.20;1.00
6018;DHT22;3037;51.068;13.780;2023-02-28T17:50:05;1.80;1.00
6018;DHT22;3037;51.068;13.780;2023-02-28T17:52:30;1.60;1.00
6018;DHT22;3037;51.068;13.780;2023-02-28T17:55:02;1.50;1.00
6018;DHT22;3037;51.068;13.780;2023-02-28T17:57:28;1.40;1.00
6018;DHT22;3037;51.068;13.780;2023-02-28T17:59:53;1.40;1.00
6018;DHT22;3037;51.068;13.780;2023-02-28T18:02:19;1.10;1.00
6018;DHT22;3037;51.068;13.780;2023-02-28T18:04:44;1.00;1.00
6018;DHT22;3037;51.068;13.780;2023-02-28T18:07:11;0.90;1.00
6018;DHT22;3037;51.068;13.780;2023-02-28T18:09:37;0.70;1.00
6018;DHT22;3037;51.068;13.780;2023-02-28T18:12:03;0.70;1.00
6018;DHT22;3037;51.068;13.780;2023-02-28T18:14:28;0.80;1.00
6018;DHT22;3037;51.068;13.780;2023-02-28T18:16:54;0.70;1.00
6018;DHT22;3037;51.068;13.780;2023-02-28T18:19:20;0.70;1.00
6018;DHT22;3037;51.068;13.780;2023-02-28T18:21:49;0.60;1.00
6018;DHT22;3037;51.068;13.780;2023-02-28T18:24:15;0.60;1.00
6018;DHT22;3037;51.068;13.780;2023-02-28T18:26:41;0.50;1.00